Strona główna
METAR-TAF:

METAR-TAF

Lotnisko :

Port lotniczy Akanu Ibiam

Enugu, Nigeria

Szerokość geograficzna: 06-28N, Długość geograficzna: 007-33E, wysokość: 137 m

Aktualna obserwacja pogody

Raport powstał 1 godzina i 14 minut temu, godzina 13:00 UTC
Wiatr 5 kt od południowo-południowy zachód
Temperatura 26°C
Wilgotność 84%
Ciśnienie 1013 hPa
Widzialność 10 km lub więcej
Rozproszone chmury na wysokości 1100 ft
Mało chmury na wysokości 2000 ft, Cumulonimbus.

METAR: DNEN 211300Z 21005KT 9999 TS-E SCT011 FEW020CB 26/23 Q1013 NOSIG

czas: 15:14 (14:14 UTC)


TAF: brakujący

Obserwacja i prognoza pogody dla ponad 4000 lotnisk (raport METAR i TAF).

Dostępne stacje oznaczono żółtymi i czerwonymi punktami na mapie.

Najedź kursorem aby zobaczyć nazwę stacji.

Kliknij aby zobaczyć obserwacje i prognozy pogody.

Aby zmienić mapę: kliknij na zielony przycisk z czarnym krzyżykiem, aby powiększyć; na zielony przycisk z myślnikiem, aby pomniejszyć; na zielone strzałki, aby przejść do map sąsiednich.


METAR-TAF: